createdAt,value
2022-10-21T00:00:47.461Z,86.31
2022-10-21T00:01:47.454Z,86.11
2022-10-21T00:02:47.440Z,86.41
2022-10-21T00:03:47.426Z,86.21
2022-10-21T00:04:47.414Z,86.11
2022-10-21T00:05:47.410Z,85.90
2022-10-21T00:06:47.394Z,86.01
2022-10-21T00:07:47.383Z,86.11
2022-10-21T00:08:47.407Z,86.31
2022-10-21T00:09:47.389Z,86.31
2022-10-21T00:10:47.347Z,86.21
2022-10-21T00:11:47.346Z,86.21
2022-10-21T00:12:47.323Z,86.11
2022-10-21T00:13:47.314Z,86.21
2022-10-21T00:14:47.302Z,86.01
2022-10-21T00:15:47.291Z,86.11
2022-10-21T00:16:47.289Z,86.11
2022-10-21T00:17:47.268Z,86.11
2022-10-21T00:18:47.256Z,86.41
2022-10-21T00:19:47.281Z,86.52
2022-10-21T00:20:47.241Z,86.41
2022-10-21T00:21:47.223Z,86.21
2022-10-21T00:22:47.213Z,86.11
2022-10-21T00:23:47.201Z,86.11
2022-10-21T00:24:47.190Z,86.11
2022-10-21T00:25:47.207Z,86.41
2022-10-21T00:26:47.168Z,86.62
2022-10-21T00:27:47.156Z,86.73
2022-10-21T00:28:47.149Z,86.62
2022-10-21T00:29:47.137Z,86.62
2022-10-21T00:30:47.121Z,86.82
2022-10-21T00:31:47.113Z,86.73
2022-10-21T00:32:47.109Z,86.73
2022-10-21T00:33:47.089Z,86.62
2022-10-21T00:34:47.088Z,86.73
2022-10-21T00:35:47.068Z,86.82
2022-10-21T00:36:47.056Z,86.87
2022-10-21T00:37:47.050Z,87.07
2022-10-21T00:38:47.045Z,87.07
2022-10-21T00:39:47.022Z,87.28
2022-10-21T00:40:47.015Z,87.17
2022-10-21T00:41:47.022Z,87.17
2022-10-21T00:42:47.231Z,86.93
2022-10-21T00:43:46.977Z,86.93
2022-10-21T00:44:46.971Z,86.82
2022-10-21T00:45:46.958Z,86.82
2022-10-21T00:46:46.948Z,86.93
2022-10-21T00:48:46.923Z,87.03
2022-10-21T00:49:46.912Z,87.13
2022-10-21T00:50:46.903Z,87.03
2022-10-21T00:51:46.886Z,87.13
2022-10-21T00:52:46.878Z,87.13
2022-10-21T00:53:46.868Z,87.24
2022-10-21T00:54:46.852Z,87.13
2022-10-21T00:55:46.848Z,87.24
2022-10-21T00:56:46.859Z,87.34
2022-10-21T00:57:46.845Z,87.34
2022-10-21T00:58:46.811Z,87.24
2022-10-21T00:59:46.797Z,87.34
2022-10-21T01:00:46.863Z,87.34
2022-10-21T01:01:46.773Z,87.34
2022-10-21T01:02:46.766Z,87.34
2022-10-21T01:03:46.759Z,87.44
2022-10-21T01:04:46.742Z,87.44
2022-10-21T01:05:46.791Z,87.54
2022-10-21T01:06:46.718Z,87.54
2022-10-21T01:07:47.058Z,87.65
2022-10-21T01:08:46.783Z,87.65
2022-10-21T01:09:46.685Z,87.65
2022-10-21T01:10:46.675Z,87.54
2022-10-21T01:11:46.666Z,87.44
2022-10-21T01:12:46.653Z,87.34
2022-10-21T01:13:46.663Z,87.24
2022-10-21T01:14:46.629Z,87.13
2022-10-21T01:15:46.618Z,87.24
2022-10-21T01:16:48.223Z,87.34
2022-10-21T01:17:47.123Z,87.34
2022-10-21T01:18:46.586Z,87.34
2022-10-21T01:19:46.572Z,87.44
2022-10-21T01:20:46.563Z,87.65
2022-10-21T01:21:46.551Z,87.65
2022-10-21T01:22:46.544Z,87.85
2022-10-21T01:23:46.531Z,87.95
2022-10-21T01:24:46.516Z,87.95
2022-10-21T01:25:46.511Z,87.95
2022-10-21T01:26:46.494Z,88.06
2022-10-21T01:27:46.494Z,88.06
2022-10-21T01:28:46.475Z,88.06
2022-10-21T01:29:46.485Z,88.06
2022-10-21T01:30:46.454Z,88.06
2022-10-21T01:31:46.437Z,87.95
2022-10-21T01:32:46.433Z,87.95
2022-10-21T01:33:46.417Z,87.85
2022-10-21T01:34:46.404Z,87.95
2022-10-21T01:35:46.395Z,88.06
2022-10-21T01:36:46.385Z,88.06
2022-10-21T01:37:46.431Z,87.95
2022-10-21T01:38:46.358Z,88.06
2022-10-21T01:39:46.348Z,88.16
2022-10-21T01:40:46.340Z,88.26
2022-10-21T01:41:46.326Z,88.06
2022-10-21T01:42:46.318Z,88.06
2022-10-21T01:43:46.305Z,88.06
2022-10-21T01:44:46.291Z,88.36
2022-10-21T01:45:46.309Z,88.67
2022-10-21T01:46:46.269Z,88.98
2022-10-21T01:47:46.260Z,88.98
2022-10-21T01:48:46.248Z,88.98
2022-10-21T01:49:46.238Z,88.98
2022-10-21T01:50:46.230Z,88.98
2022-10-21T01:51:46.218Z,88.87
2022-10-21T01:52:46.202Z,88.98
2022-10-21T01:53:46.192Z,89.19
2022-10-21T01:54:46.181Z,89.29
2022-10-21T01:55:46.166Z,89.39
2022-10-21T01:56:46.161Z,89.39
2022-10-21T01:57:46.146Z,89.39
2022-10-21T01:58:46.135Z,89.49
2022-10-21T01:59:46.124Z,89.39
2022-10-21T02:00:46.158Z,89.39
2022-10-21T02:01:46.124Z,89.29
2022-10-21T02:02:46.090Z,89.19
2022-10-21T02:03:46.076Z,89.08
2022-10-21T02:04:46.069Z,89.08
2022-10-21T02:05:46.053Z,89.08
2022-10-21T02:06:46.044Z,88.98
2022-10-21T02:07:46.033Z,89.08
2022-10-21T02:08:46.102Z,89.19
2022-10-21T02:09:46.013Z,89.19
2022-10-21T02:10:45.997Z,89.08
2022-10-21T02:11:45.995Z,89.08
2022-10-21T02:12:45.980Z,89.19
2022-10-21T02:13:45.964Z,89.39
2022-10-21T02:14:45.960Z,89.29
2022-10-21T02:15:45.941Z,89.19
2022-10-21T02:16:45.933Z,89.08
2022-10-21T02:17:45.944Z,89.08
2022-10-21T02:18:45.911Z,89.08
2022-10-21T02:19:45.900Z,89.14
2022-10-21T02:20:45.890Z,89.14
2022-10-21T02:21:45.873Z,89.04
2022-10-21T02:22:45.863Z,88.94
2022-10-21T02:23:45.850Z,88.94
2022-10-21T02:24:45.843Z,89.04
2022-10-21T02:25:45.829Z,89.04
2022-10-21T02:26:45.816Z,88.73
2022-10-21T02:27:45.810Z,88.73
2022-10-21T02:28:45.796Z,88.87
2022-10-21T02:29:45.786Z,88.87
2022-10-21T02:30:45.773Z,88.94
2022-10-21T02:31:45.767Z,88.73
2022-10-21T02:32:45.758Z,88.63
2022-10-21T02:33:45.764Z,88.73
2022-10-21T02:34:45.728Z,88.78
2022-10-21T02:35:45.720Z,88.73
2022-10-21T02:36:45.706Z,88.73
2022-10-21T02:37:45.696Z,88.84
2022-10-21T02:38:45.694Z,88.84
2022-10-21T02:39:45.671Z,88.84
2022-10-21T02:40:45.667Z,88.84
2022-10-21T02:41:45.648Z,88.73
2022-10-21T02:42:45.637Z,88.73
2022-10-21T02:43:45.626Z,88.63
2022-10-21T02:44:45.618Z,88.53
2022-10-21T02:45:45.607Z,88.42
2022-10-21T02:46:45.593Z,88.73
2022-10-21T02:47:45.579Z,88.63
2022-10-21T02:48:45.569Z,88.63
2022-10-21T02:49:45.586Z,88.84
2022-10-21T02:50:45.553Z,88.84
2022-10-21T02:51:45.548Z,88.94
2022-10-21T02:52:45.523Z,89.04
2022-10-21T02:53:45.514Z,88.94
2022-10-21T02:54:45.509Z,88.84
2022-10-21T02:55:45.491Z,88.63
2022-10-21T02:56:45.484Z,88.53
2022-10-21T02:57:45.469Z,88.53
2022-10-21T02:58:45.459Z,88.73
2022-10-21T02:59:45.446Z,88.73
2022-10-21T03:00:45.517Z,88.63
2022-10-21T03:01:45.425Z,88.73
2022-10-21T03:02:45.419Z,88.73
2022-10-21T03:03:45.402Z,88.84
2022-10-21T03:04:45.393Z,88.59
2022-10-21T03:05:45.403Z,88.39
2022-10-21T03:06:45.368Z,88.33
2022-10-21T03:07:45.355Z,88.39
2022-10-21T03:08:45.406Z,88.49
2022-10-21T03:09:45.333Z,88.69
2022-10-21T03:10:48.034Z,88.59
2022-10-21T03:11:45.315Z,88.39
2022-10-21T03:12:45.303Z,88.39
2022-10-21T03:13:45.294Z,88.39
2022-10-21T03:14:45.278Z,88.59
2022-10-21T03:15:45.269Z,88.63
2022-10-21T03:16:45.258Z,88.73
2022-10-21T03:17:45.244Z,88.84
2022-10-21T03:18:45.233Z,88.94
2022-10-21T03:19:45.222Z,88.84
2022-10-21T03:20:45.209Z,88.94
2022-10-21T03:21:45.223Z,88.90
2022-10-21T03:22:45.187Z,88.90
2022-10-21T03:23:45.177Z,88.90
2022-10-21T03:24:45.164Z,88.90
2022-10-21T03:25:45.154Z,88.90
2022-10-21T03:26:45.143Z,88.94
2022-10-21T03:27:45.133Z,88.80
2022-10-21T03:28:45.119Z,88.80
2022-10-21T03:29:45.112Z,88.80
2022-10-21T03:30:45.103Z,88.80
2022-10-21T03:31:45.086Z,88.90
2022-10-21T03:32:45.074Z,88.90
2022-10-21T03:33:45.063Z,88.90
2022-10-21T03:34:45.055Z,88.90
2022-10-21T03:35:45.045Z,88.90
2022-10-21T03:36:45.047Z,88.90
2022-10-21T03:37:45.099Z,88.90
2022-10-21T03:38:45.024Z,88.80
2022-10-21T03:39:45.015Z,88.90
2022-10-21T03:40:44.987Z,89.00
2022-10-21T03:41:44.975Z,89.00
2022-10-21T03:42:44.971Z,89.10
2022-10-21T03:43:44.955Z,89.10
2022-10-21T03:44:44.941Z,89.20
2022-10-21T03:45:44.933Z,89.31
2022-10-21T03:46:44.918Z,89.20
2022-10-21T03:47:44.921Z,89.10
2022-10-21T03:48:44.895Z,89.10
2022-10-21T03:49:44.894Z,89.10
2022-10-21T03:50:44.875Z,89.20
2022-10-21T03:51:44.861Z,89.41
2022-10-21T03:52:44.856Z,89.41
2022-10-21T03:53:44.861Z,89.41
2022-10-21T03:54:44.832Z,89.51
2022-10-21T03:55:44.816Z,89.61
2022-10-21T03:56:44.805Z,89.51
2022-10-21T03:57:44.796Z,89.41
2022-10-21T03:58:44.784Z,89.41
2022-10-21T03:59:44.772Z,89.51
2022-10-21T04:00:44.766Z,89.41
2022-10-21T04:01:44.862Z,89.41
2022-10-21T04:02:44.745Z,89.31
2022-10-21T04:03:44.726Z,89.31
2022-10-21T04:04:44.722Z,89.31
2022-10-21T04:05:44.704Z,89.31
2022-10-21T04:06:44.696Z,89.31
2022-10-21T04:07:48.143Z,89.41
2022-10-21T04:08:44.736Z,89.51
2022-10-21T04:09:44.682Z,89.61
2022-10-21T04:10:44.727Z,89.72
2022-10-21T04:11:44.640Z,89.82
2022-10-21T04:12:44.626Z,89.82
2022-10-21T04:13:44.615Z,89.92
2022-10-21T04:14:44.603Z,89.92
2022-10-21T04:15:44.591Z,89.92
2022-10-21T04:16:46.133Z,89.92
2022-10-21T04:17:44.572Z,89.82
2022-10-21T04:18:44.563Z,89.82
2022-10-21T04:19:44.547Z,89.92
2022-10-21T04:20:44.542Z,89.82
2022-10-21T04:21:44.526Z,89.72
2022-10-21T04:22:44.521Z,89.72
2022-10-21T04:23:44.500Z,89.72
2022-10-21T04:24:44.491Z,89.61
2022-10-21T04:25:44.507Z,89.57
2022-10-21T04:26:44.468Z,89.57
2022-10-21T04:27:44.465Z,89.57
2022-10-21T04:28:44.447Z,89.47
2022-10-21T04:29:44.434Z,89.37
2022-10-21T04:30:44.427Z,89.27
2022-10-21T04:31:44.458Z,89.27
2022-10-21T04:32:44.404Z,89.37
2022-10-21T04:33:44.392Z,89.37
2022-10-21T04:34:44.385Z,89.27
2022-10-21T04:35:44.376Z,89.27
2022-10-21T04:36:44.357Z,89.27
2022-10-21T04:37:44.352Z,89.31
2022-10-21T04:38:44.332Z,89.31
2022-10-21T04:39:44.323Z,89.41
2022-10-21T04:40:44.314Z,89.61
2022-10-21T04:41:44.342Z,89.72
2022-10-21T04:42:44.297Z,89.72
2022-10-21T04:43:44.278Z,89.82
2022-10-21T04:44:44.266Z,89.82
2022-10-21T04:45:44.255Z,89.72
2022-10-21T04:46:44.245Z,89.72
2022-10-21T04:47:44.238Z,89.82
2022-10-21T04:48:44.225Z,89.92
2022-10-21T04:49:44.219Z,89.92
2022-10-21T04:50:44.198Z,89.92
2022-10-21T04:51:44.193Z,90.02
2022-10-21T04:52:44.186Z,90.02
2022-10-21T04:53:44.165Z,89.92
2022-10-21T04:54:44.163Z,89.92
2022-10-21T04:55:44.142Z,89.92
2022-10-21T04:56:44.131Z,90.13
2022-10-21T04:57:44.141Z,90.13
2022-10-21T04:58:44.108Z,90.13
2022-10-21T04:59:44.099Z,90.13
2022-10-21T05:00:44.130Z,90.13
2022-10-21T05:01:44.075Z,90.13
2022-10-21T05:02:44.069Z,90.13
2022-10-21T05:03:44.054Z,90.13
2022-10-21T05:04:44.044Z,90.13
2022-10-21T05:05:44.031Z,90.13
2022-10-21T05:06:44.017Z,90.13
2022-10-21T05:07:44.010Z,90.13
2022-10-21T05:08:44.032Z,90.23
2022-10-21T05:09:43.982Z,90.33
2022-10-21T05:10:43.973Z,90.33
2022-10-21T05:11:43.961Z,90.33
2022-10-21T05:12:43.950Z,90.33
2022-10-21T05:13:43.960Z,90.33
2022-10-21T05:14:43.926Z,90.43
2022-10-21T05:15:43.914Z,90.33
2022-10-21T05:16:43.904Z,90.33
2022-10-21T05:17:43.903Z,90.33
2022-10-21T05:18:43.881Z,90.33
2022-10-21T05:19:43.879Z,90.23
2022-10-21T05:20:43.859Z,90.23
2022-10-21T05:21:43.855Z,90.23
2022-10-21T05:22:45.834Z,90.13
2022-10-21T05:23:43.828Z,90.23
2022-10-21T05:24:43.819Z,90.33
2022-10-21T05:25:43.801Z,90.23
2022-10-21T05:26:43.799Z,90.23
2022-10-21T05:27:43.779Z,90.02
2022-10-21T05:28:45.774Z,89.92
2022-10-21T05:29:43.791Z,89.82
2022-10-21T05:30:43.749Z,89.82
2022-10-21T05:31:43.741Z,89.78
2022-10-21T05:32:43.726Z,89.72
2022-10-21T05:33:43.715Z,89.47
2022-10-21T05:34:43.701Z,89.51
2022-10-21T05:35:43.692Z,89.51
2022-10-21T05:36:43.684Z,89.51
2022-10-21T05:37:43.667Z,89.57
2022-10-21T05:38:45.656Z,89.47
2022-10-21T05:39:43.655Z,89.57
2022-10-21T05:40:45.632Z,89.51
2022-10-21T05:41:47.005Z,89.61
2022-10-21T05:42:43.610Z,89.47
2022-10-21T05:43:43.606Z,89.47
2022-10-21T05:44:43.587Z,89.37
2022-10-21T05:45:43.602Z,89.37
2022-10-21T05:46:43.568Z,89.37
2022-10-21T05:47:43.554Z,89.27
2022-10-21T05:48:43.627Z,89.37
2022-10-21T05:49:43.530Z,89.16
2022-10-21T05:50:43.524Z,89.16
2022-10-21T05:51:45.522Z,89.16
2022-10-21T05:52:43.499Z,89.16
2022-10-21T05:53:45.491Z,89.06
2022-10-21T05:54:45.574Z,88.96
2022-10-21T05:55:45.465Z,89.06
2022-10-21T05:56:43.454Z,88.96
2022-10-21T05:57:43.523Z,88.86
2022-10-21T05:58:45.436Z,88.96
2022-10-21T05:59:43.420Z,88.96
2022-10-21T06:00:45.535Z,88.86
2022-10-21T06:01:43.408Z,88.96
2022-10-21T06:02:43.387Z,88.96
2022-10-21T06:03:43.379Z,89.06
2022-10-21T06:04:43.399Z,88.96
2022-10-21T06:05:43.361Z,88.86
2022-10-21T06:06:43.359Z,88.86
2022-10-21T06:07:43.332Z,88.96
2022-10-21T06:08:43.391Z,88.86
2022-10-21T06:09:45.310Z,88.75
2022-10-21T06:10:43.303Z,88.65
2022-10-21T06:11:45.286Z,88.65
2022-10-21T06:12:43.281Z,88.65
2022-10-21T06:13:43.262Z,88.51
2022-10-21T06:14:43.256Z,88.51
2022-10-21T06:15:47.419Z,88.51
2022-10-21T06:16:43.254Z,88.51
2022-10-21T06:17:43.217Z,88.51
2022-10-21T06:18:43.206Z,88.61
2022-10-21T06:19:45.953Z,88.71
2022-10-21T06:20:43.183Z,88.61
2022-10-21T06:21:43.175Z,88.61
2022-10-21T06:22:43.163Z,88.61
2022-10-21T06:23:43.148Z,88.61
2022-10-21T06:24:43.143Z,88.71
2022-10-21T06:25:43.127Z,88.81
2022-10-21T06:26:43.117Z,88.81
2022-10-21T06:27:43.104Z,88.81
2022-10-21T06:28:43.092Z,88.92
2022-10-21T06:29:43.086Z,89.22
2022-10-21T06:30:43.080Z,89.33
2022-10-21T06:31:45.059Z,89.53
2022-10-21T06:32:43.071Z,89.73
2022-10-21T06:33:43.036Z,89.84
2022-10-21T06:34:43.029Z,89.84
2022-10-21T06:35:45.013Z,89.94
2022-10-21T06:36:43.006Z,90.04
2022-10-21T06:37:42.993Z,90.14
2022-10-21T06:38:43.029Z,90.14
2022-10-21T06:39:42.972Z,90.25
2022-10-21T06:40:42.964Z,90.25
2022-10-21T06:41:42.947Z,90.35
2022-10-21T06:42:42.935Z,90.45
2022-10-21T06:43:43.011Z,90.55
2022-10-21T06:44:42.914Z,90.55
2022-10-21T06:45:42.903Z,90.76
2022-10-21T06:46:42.891Z,90.86
2022-10-21T06:47:44.878Z,90.96
2022-10-21T06:48:42.893Z,91.07
2022-10-21T06:49:42.860Z,91.07
2022-10-21T06:50:42.857Z,91.07
2022-10-21T06:51:42.836Z,91.02
2022-10-21T06:52:42.823Z,91.13
2022-10-21T06:53:42.817Z,91.13
2022-10-21T06:54:42.801Z,91.17
2022-10-21T06:55:42.791Z,91.22
2022-10-21T06:56:42.782Z,91.22
2022-10-21T06:57:42.767Z,91.22
2022-10-21T06:58:42.757Z,91.13
2022-10-21T06:59:42.746Z,91.13
2022-10-21T07:00:42.737Z,91.02
2022-10-21T07:01:59.265Z,91.02
2022-10-21T07:02:42.715Z,91.02
2022-10-21T07:03:42.701Z,90.92
2022-10-21T07:04:42.716Z,91.02
2022-10-21T07:05:42.678Z,91.02
2022-10-21T07:06:42.668Z,90.82
2022-10-21T07:07:42.657Z,90.82
2022-10-21T07:08:54.060Z,90.57
2022-10-21T07:09:42.691Z,90.57
2022-10-21T07:10:42.625Z,90.57
2022-10-21T07:11:42.610Z,90.57
2022-10-21T07:12:42.598Z,90.47
2022-10-21T07:13:42.607Z,90.47
2022-10-21T07:14:42.580Z,90.37
2022-10-21T07:15:42.582Z,90.37
2022-10-21T07:16:42.554Z,90.27
2022-10-21T07:17:42.542Z,90.22
2022-10-21T07:18:42.723Z,90.22
2022-10-21T07:19:42.528Z,89.92
2022-10-21T07:20:42.533Z,89.71
2022-10-21T07:21:42.500Z,89.51
2022-10-21T07:22:42.485Z,89.51
2022-10-21T07:23:42.481Z,89.41
2022-10-21T07:24:42.470Z,89.30
2022-10-21T07:25:42.453Z,89.10
2022-10-21T07:26:42.443Z,89.00
2022-10-21T07:27:44.778Z,89.00
2022-10-21T07:28:42.423Z,89.00
2022-10-21T07:29:42.414Z,89.00
2022-10-21T07:30:42.397Z,89.00
2022-10-21T07:31:42.394Z,89.10
2022-10-21T07:32:42.374Z,89.10
2022-10-21T07:33:42.375Z,88.89
2022-10-21T07:34:42.361Z,89.00
2022-10-21T07:35:42.346Z,89.00
2022-10-21T07:36:42.355Z,89.00
2022-10-21T07:37:42.327Z,89.00
2022-10-21T07:38:42.307Z,88.89
2022-10-21T07:39:42.299Z,88.69
2022-10-21T07:40:42.284Z,88.69
2022-10-21T07:41:42.276Z,88.65
2022-10-21T07:42:42.268Z,88.65
2022-10-21T07:43:42.248Z,88.65
2022-10-21T07:44:42.244Z,88.44
2022-10-21T07:45:42.230Z,88.44
2022-10-21T07:46:42.223Z,88.44
2022-10-21T07:47:42.209Z,88.24
2022-10-21T07:48:42.192Z,88.04
2022-10-21T07:49:42.182Z,88.00
2022-10-21T07:50:42.171Z,87.89
2022-10-21T07:51:42.162Z,87.79
2022-10-21T07:52:48.358Z,87.69
2022-10-21T07:53:42.140Z,87.69
2022-10-21T07:54:42.125Z,87.69
2022-10-21T07:55:42.115Z,87.69
2022-10-21T07:56:42.102Z,87.59
2022-10-21T07:57:42.097Z,87.38
2022-10-21T07:58:42.088Z,87.24
2022-10-21T07:59:42.067Z,87.04
2022-10-21T08:00:42.274Z,86.83
2022-10-21T08:01:42.143Z,86.73
2022-10-21T08:02:42.033Z,86.73
2022-10-21T08:03:42.022Z,86.83
2022-10-21T08:04:42.013Z,86.63
2022-10-21T08:05:41.999Z,86.38
2022-10-21T08:06:41.990Z,86.28
2022-10-21T08:07:41.982Z,86.18
2022-10-21T08:08:42.047Z,86.08
2022-10-21T08:09:41.964Z,85.98
2022-10-21T08:10:41.997Z,85.87
2022-10-21T08:11:41.933Z,85.73
2022-10-21T08:12:41.923Z,85.63
2022-10-21T08:13:41.911Z,85.43
2022-10-21T08:14:41.897Z,85.36
2022-10-21T08:15:41.889Z,85.26
2022-10-21T08:16:41.879Z,85.26
2022-10-21T08:17:41.862Z,85.16
2022-10-21T08:18:41.867Z,85.26
2022-10-21T08:19:41.839Z,85.36
2022-10-21T08:20:41.833Z,85.26
2022-10-21T08:21:41.817Z,85.12
2022-10-21T08:22:41.883Z,85.02
2022-10-21T08:23:41.795Z,85.12
2022-10-21T08:24:42.466Z,84.91
2022-10-21T08:25:41.773Z,85.02
2022-10-21T08:26:41.761Z,84.91
2022-10-21T08:27:41.748Z,84.91
2022-10-21T08:28:41.742Z,84.71
2022-10-21T08:29:41.725Z,84.71
2022-10-21T08:30:41.723Z,84.57
2022-10-21T08:31:41.709Z,84.27
2022-10-21T08:32:41.814Z,84.22
2022-10-21T08:33:41.680Z,84.02
2022-10-21T08:34:41.673Z,83.51
2022-10-21T08:35:41.662Z,82.96
2022-10-21T08:36:41.649Z,82.96
2022-10-21T08:37:41.634Z,82.31
2022-10-21T08:38:41.631Z,82.11
2022-10-21T08:39:41.610Z,81.67
2022-10-21T08:40:41.627Z,80.95
2022-10-21T08:41:41.588Z,81.06
2022-10-21T08:42:41.640Z,80.81
2022-10-21T08:43:41.564Z,80.20
2022-10-21T08:44:41.555Z,80.20
2022-10-21T08:45:41.542Z,80.31
2022-10-21T08:46:41.531Z,79.90
2022-10-21T08:47:41.720Z,79.90
2022-10-21T08:48:41.509Z,79.90
2022-10-21T08:49:41.497Z,79.69
2022-10-21T08:50:41.484Z,79.90
2022-10-21T08:51:41.483Z,79.90
2022-10-21T08:52:41.462Z,79.66
2022-10-21T08:53:41.456Z,79.46
2022-10-21T08:54:41.440Z,79.11
2022-10-21T08:55:41.430Z,78.91
2022-10-21T08:56:41.452Z,78.60
2022-10-21T08:57:41.667Z,78.81
2022-10-21T08:58:41.398Z,78.91
2022-10-21T08:59:41.383Z,78.60
2022-10-21T09:00:41.372Z,78.10
2022-10-21T09:01:41.363Z,78.20
2022-10-21T09:02:41.441Z,78.40
2022-10-21T09:03:41.340Z,78.60
2022-10-21T09:04:41.334Z,78.67
2022-10-21T09:05:41.318Z,78.57
2022-10-21T09:06:41.310Z,78.13
2022-10-21T09:07:41.691Z,77.72
2022-10-21T09:08:41.412Z,77.82
2022-10-21T09:09:41.277Z,77.31
2022-10-21T09:10:41.263Z,77.11
2022-10-21T09:11:41.256Z,77.11
2022-10-21T09:12:41.265Z,77.11
2022-10-21T09:13:41.231Z,77.21
2022-10-21T09:14:41.224Z,76.87
2022-10-21T09:15:41.209Z,76.56
2022-10-21T09:16:41.206Z,76.47
2022-10-21T09:17:41.511Z,76.06
2022-10-21T09:18:41.175Z,76.36
2022-10-21T09:19:41.167Z,76.56
2022-10-21T09:20:41.155Z,76.47
2022-10-21T09:21:41.141Z,76.03
2022-10-21T09:22:41.133Z,75.62
2022-10-21T09:23:41.122Z,75.51
2022-10-21T09:24:41.111Z,75.51
2022-10-21T09:25:41.095Z,75.48
2022-10-21T09:26:41.094Z,75.04
2022-10-21T09:27:54.935Z,74.40
2022-10-21T09:28:41.085Z,73.12
2022-10-21T09:29:41.054Z,71.19
2022-10-21T09:30:41.043Z,69.72
2022-10-21T09:31:41.036Z,67.70
2022-10-21T09:32:41.019Z,66.56
2022-10-21T09:33:41.006Z,65.69
2022-10-21T09:34:40.994Z,63.82
2022-10-21T09:35:40.982Z,63.29
2022-10-21T09:36:40.977Z,62.65
2022-10-21T09:37:41.664Z,62.03
2022-10-21T09:38:40.950Z,61.72
2022-10-21T09:39:40.945Z,61.02
2022-10-21T09:40:40.927Z,60.72
2022-10-21T09:41:40.920Z,62.44
2022-10-21T09:42:47.392Z,64.05
2022-10-21T09:43:40.895Z,65.05
2022-10-21T09:44:40.917Z,65.66
2022-10-21T09:45:40.871Z,65.05
2022-10-21T09:46:40.861Z,65.12
2022-10-21T09:47:40.846Z,64.58
2022-10-21T09:48:53.966Z,64.48
2022-10-21T09:50:05.835Z,64.05
2022-10-21T09:50:40.845Z,63.95
2022-10-21T09:51:40.802Z,63.85
2022-10-21T09:52:41.192Z,63.42
2022-10-21T09:53:43.577Z,63.32
2022-10-21T09:54:40.771Z,63.35
2022-10-21T09:55:40.757Z,63.85
2022-10-21T09:56:40.748Z,63.68
2022-10-21T09:57:40.758Z,64.22
2022-10-21T09:58:40.724Z,65.05
2022-10-21T09:59:40.831Z,65.46
2022-10-21T10:00:40.725Z,65.12
2022-10-21T10:01:40.711Z,65.25
2022-10-21T10:02:40.938Z,65.35
2022-10-21T10:03:40.679Z,65.35
2022-10-21T10:04:40.655Z,65.62
2022-10-21T10:05:40.644Z,64.12
2022-10-21T10:06:40.643Z,63.09
2022-10-21T10:07:40.622Z,62.68
2022-10-21T10:08:40.703Z,63.09
2022-10-21T10:09:40.609Z,62.59
2022-10-21T10:10:40.591Z,62.35
2022-10-21T10:11:40.584Z,61.88
2022-10-21T10:12:40.950Z,62.21
2022-10-21T10:13:40.561Z,62.95
2022-10-21T10:14:40.543Z,63.35
2022-10-21T10:15:40.538Z,62.95
2022-10-21T10:16:40.552Z,63.25
2022-10-21T10:17:40.508Z,63.45
2022-10-21T10:18:40.496Z,62.89
2022-10-21T10:19:40.486Z,61.92
2022-10-21T10:20:40.532Z,60.59
2022-10-21T10:21:40.462Z,60.46
2022-10-21T10:22:40.953Z,59.86
2022-10-21T10:23:40.439Z,59.43
2022-10-21T10:24:40.430Z,58.87
2022-10-21T10:25:40.422Z,57.81
2022-10-21T10:26:40.406Z,57.44
2022-10-21T10:27:40.398Z,58.60
2022-10-21T10:29:40.377Z,60.89
2022-10-21T10:30:40.359Z,61.35
2022-10-21T10:31:40.351Z,62.92
2022-10-21T10:32:40.852Z,63.45
2022-10-21T10:33:40.332Z,64.28
2022-10-21T10:34:40.316Z,64.92
2022-10-21T10:35:40.303Z,65.35
2022-10-21T10:36:40.291Z,66.09
2022-10-21T10:37:40.338Z,66.72
2022-10-21T10:38:40.271Z,66.82
2022-10-21T10:39:40.260Z,67.36
2022-10-21T10:40:40.247Z,68.30
2022-10-21T10:41:40.234Z,68.10
2022-10-21T10:42:40.484Z,68.00
2022-10-21T10:43:40.213Z,68.40
2022-10-21T10:44:40.204Z,68.20
2022-10-21T10:45:40.190Z,67.80
2022-10-21T10:46:40.245Z,67.87
2022-10-21T10:47:40.463Z,67.02
2022-10-21T10:48:40.383Z,66.09
2022-10-21T10:49:40.172Z,65.69
2022-10-21T10:50:40.133Z,65.69
2022-10-21T10:51:40.122Z,65.69
2022-10-21T10:52:40.119Z,65.55
2022-10-21T10:53:40.100Z,64.85
2022-10-21T10:54:40.095Z,65.05
2022-10-21T10:55:40.142Z,65.12
2022-10-21T10:56:40.072Z,64.19
2022-10-21T10:57:46.113Z,63.75
2022-10-21T10:58:40.042Z,64.11
2022-10-21T10:59:40.034Z,64.69
2022-10-21T11:00:40.147Z,64.08
2022-10-21T11:01:40.054Z,64.72
2022-10-21T11:02:40.017Z,65.22
2022-10-21T11:03:41.393Z,65.22
2022-10-21T11:04:40.096Z,64.52
2022-10-21T11:05:39.962Z,64.22
2022-10-21T11:06:39.958Z,64.19
2022-10-21T11:07:40.260Z,63.22
2022-10-21T11:08:39.976Z,62.18
2022-10-21T11:09:39.925Z,61.75
2022-10-21T11:10:39.905Z,61.42
2022-10-21T11:11:39.900Z,60.46
2022-10-21T11:12:39.884Z,59.73
2022-10-21T11:13:42.117Z,59.20
2022-10-21T11:14:39.866Z,58.34
2022-10-21T11:15:39.854Z,57.42
2022-10-21T11:16:50.405Z,57.18
2022-10-21T11:17:40.214Z,56.56
2022-10-21T11:18:39.822Z,56.36
2022-10-21T11:19:39.807Z,55.96
2022-10-21T11:20:39.913Z,55.76
2022-10-21T11:21:39.784Z,56.64
2022-10-21T11:22:39.772Z,58.30
2022-10-21T11:23:39.763Z,59.13
2022-10-21T11:24:39.758Z,59.13
2022-10-21T11:25:39.739Z,59.33
2022-10-21T11:26:39.733Z,59.13
2022-10-21T11:27:40.091Z,59.00
2022-10-21T11:28:39.705Z,58.83
2022-10-21T11:29:39.702Z,58.93
2022-10-21T11:30:39.685Z,59.13
2022-10-21T11:31:48.818Z,59.13
2022-10-21T11:32:39.666Z,59.13
2022-10-21T11:33:39.649Z,59.10
2022-10-21T11:34:39.642Z,58.70
2022-10-21T11:35:39.627Z,58.70
2022-10-21T11:36:39.732Z,58.70
2022-10-21T11:37:39.900Z,58.60
2022-10-21T11:38:39.598Z,58.47
2022-10-21T11:39:39.582Z,57.64
2022-10-21T11:40:39.576Z,57.31
2022-10-21T11:41:39.559Z,57.34
2022-10-21T11:42:39.939Z,57.42
2022-10-21T11:43:39.536Z,57.24
2022-10-21T11:44:39.526Z,57.34
2022-10-21T11:45:39.520Z,58.07
2022-10-21T11:46:39.501Z,58.40
2022-10-21T11:47:39.497Z,58.80
2022-10-21T11:48:39.478Z,58.73
2022-10-21T11:49:39.466Z,59.56
2022-10-21T11:50:39.460Z,59.96
2022-10-21T11:51:39.445Z,59.99
2022-10-21T11:52:39.733Z,60.62
2022-10-21T11:53:39.424Z,61.45
2022-10-21T11:54:49.072Z,61.78
2022-10-21T11:55:39.401Z,61.85
2022-10-21T11:56:39.388Z,61.98
2022-10-21T11:57:39.389Z,62.62
2022-10-21T11:58:39.375Z,62.89
2022-10-21T11:59:39.354Z,62.56
2022-10-21T12:00:39.345Z,61.95
2022-10-21T12:01:39.333Z,62.06
2022-10-21T12:02:39.706Z,62.15
2022-10-21T12:03:39.309Z,62.48
2022-10-21T12:04:39.306Z,63.22
2022-10-21T12:05:39.285Z,64.39
2022-10-21T12:06:39.276Z,64.78
2022-10-21T12:07:39.274Z,64.99
2022-10-21T12:08:43.092Z,65.42
2022-10-21T12:09:39.241Z,65.96
2022-10-21T12:10:39.239Z,66.26
2022-10-21T12:11:39.220Z,66.56
2022-10-21T12:12:39.538Z,66.76
2022-10-21T12:13:39.223Z,66.87
2022-10-21T12:14:39.183Z,67.07
2022-10-21T12:15:39.175Z,67.27
2022-10-21T12:16:39.171Z,67.16
2022-10-21T12:17:39.178Z,66.73
2022-10-21T12:18:39.146Z,66.73
2022-10-21T12:19:39.130Z,67.03
2022-10-21T12:20:39.119Z,66.70
2022-10-21T12:21:39.109Z,66.60
2022-10-21T12:22:39.488Z,66.40
2022-10-21T12:23:39.082Z,65.99
2022-10-21T12:24:39.192Z,66.19
2022-10-21T12:25:39.067Z,66.10
2022-10-21T12:27:39.371Z,65.76
2022-10-21T12:28:39.029Z,65.99
2022-10-21T12:29:39.016Z,66.40
2022-10-21T12:30:39.004Z,66.70
2022-10-21T12:31:38.997Z,66.50
2022-10-21T12:32:38.983Z,66.60
2022-10-21T12:33:38.972Z,67.03
2022-10-21T12:34:38.960Z,66.93
2022-10-21T12:35:39.223Z,67.23
2022-10-21T12:36:38.939Z,67.13
2022-10-21T12:37:39.061Z,67.13
2022-10-21T12:38:38.914Z,67.43
2022-10-21T12:39:38.913Z,67.43
2022-10-21T12:40:39.015Z,67.63
2022-10-21T12:41:38.882Z,67.20
2022-10-21T12:42:38.871Z,66.70
2022-10-21T12:43:38.867Z,66.50
2022-10-21T12:44:38.936Z,66.70
2022-10-21T12:45:38.842Z,67.34
2022-10-21T12:46:40.221Z,67.43
2022-10-21T12:47:39.111Z,67.57
2022-10-21T12:48:38.801Z,67.77
2022-10-21T12:49:38.792Z,68.07
2022-10-21T12:50:38.783Z,68.17
2022-10-21T12:51:38.768Z,68.51
2022-10-21T12:52:38.766Z,68.81
2022-10-21T12:53:38.775Z,68.71
2022-10-21T12:54:38.736Z,68.81
2022-10-21T12:55:38.733Z,68.91